Time;durP1;ratioP1;P1;durP2;ratioP2;P2;SDS_P1;SDS_P2;PMS_P1;PMS_P2;Temp;Humidity;BMP_temperature;BMP_pressure;BME280_temperature;BME280_humidity;BME280_pressure;Samples;Min_cycle;Max_cycle;Signal;HPM_P1;HPM_P2
2024/01/20 00:04:23;;;;;;;40.63;29.60;;;;;;;-3.44;100.00;102181.75;10493269;28;20134;-81
2024/01/20 00:09:24;;;;;;;51.40;27.80;;;;;;;-3.44;100.00;102188.47;10521037;28;20138;-81
2024/01/20 00:14:24;;;;;;;51.10;29.80;;;;;;;-3.43;100.00;102185.19;10504731;28;20044;-81
2024/01/20 00:19:25;;;;;;;36.03;26.30;;;;;;;-3.45;100.00;102197.81;10539025;28;20126;-81
2024/01/20 00:24:25;;;;;;;37.93;26.67;;;;;;;-3.43;100.00;102185.19;10528260;28;20126;-81
2024/01/20 00:29:26;;;;;;;58.83;26.53;;;;;;;-3.38;100.00;102191.81;10538079;28;20506;-81
2024/01/20 00:34:26;;;;;;;41.57;28.53;;;;;;;-3.37;100.00;102191.09;10532170;28;20039;-81
2024/01/20 00:39:27;;;;;;;49.57;31.40;;;;;;;-3.34;100.00;102198.25;10546694;28;20508;-81
2024/01/20 00:44:27;;;;;;;48.50;27.97;;;;;;;-3.31;100.00;102194.41;10531672;28;20119;-81
2024/01/20 00:49:28;;;;;;;48.83;28.43;;;;;;;-3.30;100.00;102188.56;10529102;28;20558;-81
2024/01/20 00:54:28;;;;;;;36.53;24.83;;;;;;;-3.30;100.00;102190.22;10535450;28;20563;-81
2024/01/20 00:59:29;;;;;;;51.17;28.00;;;;;;;-3.28;100.00;102187.09;10498534;28;20202;-80
2024/01/20 01:04:29;;;;;;;47.80;27.30;;;;;;;-3.32;100.00;102187.44;10530205;28;20078;-81
2024/01/20 01:09:30;;;;;;;41.70;24.33;;;;;;;-3.31;100.00;102176.50;10507065;28;20402;-81
2024/01/20 01:14:30;;;;;;;41.27;26.37;;;;;;;-3.25;100.00;102186.59;10517801;28;20050;-81
2024/01/20 01:19:31;;;;;;;54.37;28.27;;;;;;;-3.25;100.00;102179.81;10538905;28;20436;-81
2024/01/20 01:24:31;;;;;;;45.30;27.60;;;;;;;-3.21;100.00;102193.94;10527585;28;20038;-81
2024/01/20 01:29:32;;;;;;;44.70;27.83;;;;;;;-3.24;100.00;102193.53;10520187;28;20119;-80
2024/01/20 01:34:32;;;;;;;50.70;27.47;;;;;;;-3.27;100.00;102194.06;10552064;28;20031;-81
2024/01/20 01:39:33;;;;;;;42.10;27.37;;;;;;;-3.28;100.00;102207.59;10554594;28;20543;-81
2024/01/20 01:44:33;;;;;;;40.13;26.40;;;;;;;-3.24;100.00;102208.91;10524366;28;20135;-81
2024/01/20 01:49:33;;;;;;;42.53;22.60;;;;;;;-3.22;100.00;102212.59;10566410;27;20051;-82
2024/01/20 01:54:34;;;;;;;37.73;20.23;;;;;;;-3.15;100.00;102214.25;10568385;28;20127;-82
2024/01/20 01:59:34;;;;;;;38.63;28.90;;;;;;;-3.16;100.00;102215.91;10523133;28;20127;-82
2024/01/20 02:04:35;;;;;;;49.17;28.67;;;;;;;-3.13;100.00;102218.84;10543850;28;20039;-81
2024/01/20 02:09:35;;;;;;;37.67;24.77;;;;;;;-3.14;100.00;102222.13;10548779;28;20096;-81
2024/01/20 02:14:36;;;;;;;52.80;28.80;;;;;;;-3.14;100.00;102229.81;10531383;28;20498;-81
2024/01/20 02:19:37;;;;;;;39.83;26.30;;;;;;;-3.04;100.00;102233.53;10540669;28;20606;-82
2024/01/20 02:24:39;;;;;;;34.47;23.88;;;;;;;-3.10;100.00;102242.28;10538277;28;20543;-82
2024/01/20 02:29:39;;;;;;;35.13;22.50;;;;;;;-3.09;100.00;102258.53;10566652;28;20133;-81
2024/01/20 02:34:40;;;;;;;46.13;25.83;;;;;;;-3.05;100.00;102259.88;10536851;28;20433;-81
2024/01/20 02:39:40;;;;;;;37.33;26.73;;;;;;;-3.06;100.00;102261.50;10565098;28;20039;-81
2024/01/20 02:44:41;;;;;;;38.40;24.47;;;;;;;-3.01;100.00;102262.09;10567647;28;20032;-81
2024/01/20 02:49:42;;;;;;;45.50;27.63;;;;;;;-3.01;100.00;102262.97;10568490;28;20556;-81
2024/01/20 02:54:42;;;;;;;33.80;23.80;;;;;;;-3.03;100.00;102264.44;10566602;28;20043;-81
2024/01/20 02:59:43;;;;;;;41.03;26.60;;;;;;;-3.04;100.00;102252.34;10532050;28;20104;-81
2024/01/20 03:04:43;;;;;;;37.33;26.90;;;;;;;-3.02;100.00;102255.13;10549192;28;20054;-82
2024/01/20 03:09:44;;;;;;;50.50;28.07;;;;;;;-3.04;100.00;102249.78;10531916;28;20517;-81
2024/01/20 03:14:44;;;;;;;39.03;29.33;;;;;;;-3.06;100.00;102253.81;10547997;28;20040;-82
2024/01/20 03:19:45;;;;;;;24.20;17.10;;;;;;;-3.03;100.00;102259.31;10565920;28;20132;-82
2024/01/20 03:24:47;;;;;;;44.87;24.03;;;;;;;-3.05;100.00;102257.31;10548459;28;20039;-82
2024/01/20 03:29:47;;;;;;;38.70;23.20;;;;;;;-3.02;100.00;102263.72;10548539;28;20036;-82
2024/01/20 03:34:48;;;;;;;37.30;22.33;;;;;;;-2.98;100.00;102252.22;10546613;28;20118;-82
2024/01/20 03:39:48;;;;;;;49.07;29.03;;;;;;;-2.95;100.00;102265.41;10548607;28;20834;-82
2024/01/20 03:44:49;;;;;;;41.83;23.07;;;;;;;-3.04;100.00;102262.59;10515645;28;20122;-83
2024/01/20 03:49:49;;;;;;;27.80;21.13;;;;;;;-3.07;100.00;102275.03;10511552;28;20131;-82
2024/01/20 03:54:50;;;;;;;50.97;26.17;;;;;;;-3.06;100.00;102263.16;10500617;28;20097;-82
2024/01/20 03:59:50;;;;;;;41.10;25.83;;;;;;;-3.03;100.00;102273.78;10500492;28;20466;-82
2024/01/20 04:04:51;;;;;;;40.33;27.17;;;;;;;-3.06;100.00;102271.75;10527875;28;20126;-81
2024/01/20 04:09:51;;;;;;;26.77;20.87;;;;;;;-3.02;100.00;102275.63;10528083;28;20123;-81
2024/01/20 04:14:52;;;;;;;39.10;24.43;;;;;;;-3.02;100.00;102273.97;10536657;28;20075;-82
2024/01/20 04:19:52;;;;;;;33.07;24.40;;;;;;;-3.04;100.00;102282.19;10508254;28;20472;-82
2024/01/20 04:24:53;;;;;;;41.70;24.47;;;;;;;-3.01;100.00;102295.38;10495901;28;20127;-82
2024/01/20 04:29:53;;;;;;;40.33;26.80;;;;;;;-3.04;100.00;102282.19;10537334;28;20555;-81
2024/01/20 04:34:54;;;;;;;33.87;24.77;;;;;;;-3.05;100.00;102291.50;10501567;28;20466;-81
2024/01/20 04:39:56;;;;;;;51.00;27.67;;;;;;;-3.05;100.00;102296.63;10498070;28;20044;-81
2024/01/20 04:44:56;;;;;;;47.85;25.60;;;;;;;-3.11;100.00;102300.97;10547431;28;20048;-81
2024/01/20 04:49:57;;;;;;;45.23;27.77;;;;;;;-3.15;100.00;102309.94;10525438;28;20035;-80
2024/01/20 04:54:57;;;;;;;43.90;30.43;;;;;;;-3.11;100.00;102309.59;10527954;28;20046;-81
2024/01/20 04:59:58;;;;;;;42.73;25.77;;;;;;;-3.10;100.00;102323.31;10524102;28;20063;-81
2024/01/20 05:04:58;;;;;;;37.53;24.37;;;;;;;-3.13;100.00;102335.72;10522771;28;20143;-82
2024/01/20 05:09:59;;;;;;;52.27;23.90;;;;;;;-3.14;100.00;102331.34;10530829;28;20079;-82
2024/01/20 05:14:59;;;;;;;34.30;26.50;;;;;;;-3.17;100.00;102344.69;10526392;28;20242;-82
2024/01/20 05:20:00;;;;;;;40.23;26.87;;;;;;;-3.21;100.00;102346.66;10549399;28;20063;-81
2024/01/20 05:25:03;;;;;;;39.10;25.87;;;;;;;-3.22;100.00;102337.13;10546645;28;20174;-81
2024/01/20 05:30:05;;;;;;;45.40;27.67;;;;;;;-3.25;100.00;102337.69;10528723;28;20044;-81
2024/01/20 05:35:06;;;;;;;42.17;24.45;;;;;;;-3.30;100.00;102342.22;10543272;28;20479;-82
2024/01/20 05:40:07;;;;;;;48.63;28.30;;;;;;;-3.33;100.00;102344.38;10515416;28;20044;-82
2024/01/20 05:45:09;;;;;;;42.58;26.33;;;;;;;-3.34;100.00;102342.53;10548473;28;20032;-82
2024/01/20 05:50:09;;;;;;;36.20;27.08;;;;;;;-3.33;100.00;102346.94;10536066;28;20039;-82
2024/01/20 05:55:10;;;;;;;39.33;23.77;;;;;;;-3.31;100.00;102347.16;10550567;28;20036;-82
2024/01/20 06:00:11;;;;;;;39.13;25.57;;;;;;;-3.33;100.00;102349.50;10570695;28;20237;-82
2024/01/20 06:05:11;;;;;;;43.73;22.33;;;;;;;-3.34;100.00;102351.88;10551568;28;20040;-82
2024/01/20 06:10:12;;;;;;;41.93;25.97;;;;;;;-3.38;100.00;102363.34;10533656;28;20040;-82
2024/01/20 06:15:12;;;;;;;59.20;26.53;;;;;;;-3.39;100.00;102361.53;10547208;28;20110;-80
2024/01/20 06:20:15;;;;;;;47.50;30.53;;;;;;;-3.37;100.00;102372.88;10545730;27;20101;-81
2024/01/20 06:25:15;;;;;;;38.05;19.88;;;;;;;-3.38;100.00;102363.34;10568766;27;20032;-81
2024/01/20 06:30:16;;;;;;;40.23;26.20;;;;;;;-3.40;100.00;102375.97;10543484;28;20031;-81
2024/01/20 06:35:17;;;;;;;44.07;26.30;;;;;;;-3.45;100.00;102374.47;10558567;27;20035;-81
2024/01/20 06:40:17;;;;;;;36.87;21.77;;;;;;;-3.43;100.00;102392.56;10549871;28;20198;-84
2024/01/20 06:45:18;;;;;;;41.83;23.60;;;;;;;-3.48;100.00;102407.38;10534465;28;20044;-83
2024/01/20 06:50:18;;;;;;;40.20;21.90;;;;;;;-3.50;100.00;102405.31;10524287;28;20035;-84
2024/01/20 06:55:19;;;;;;;38.50;20.70;;;;;;;-3.52;100.00;102405.13;10533148;28;20111;-83
2024/01/20 07:00:20;;;;;;;44.70;27.43;;;;;;;-3.49;100.00;102405.53;10539844;28;20123;-83
2024/01/20 07:05:20;;;;;;;43.00;24.07;;;;;;;-3.47;100.00;102413.38;10550421;28;20062;-83
2024/01/20 07:10:21;;;;;;;42.00;23.50;;;;;;;-3.50;100.00;102429.28;10524986;28;20074;-83
2024/01/20 07:15:21;;;;;;;31.13;18.90;;;;;;;-3.51;100.00;102418.84;10512618;28;20127;-83
2024/01/20 07:20:22;;;;;;;35.80;23.87;;;;;;;-3.53;100.00;102423.78;10514875;28;20054;-82
2024/01/20 07:25:23;;;;;;;42.35;25.27;;;;;;;-3.54;100.00;102430.50;10491062;28;20038;-82
2024/01/20 07:30:23;;;;;;;30.67;19.23;;;;;;;-3.52;100.00;102428.16;10527301;28;20126;-82
2024/01/20 07:35:24;;;;;;;36.93;23.40;;;;;;;-3.49;100.00;102430.19;10527744;28;20491;-83
2024/01/20 07:40:24;;;;;;;33.83;20.67;;;;;;;-3.51;100.00;102434.19;10523413;28;20041;-83
2024/01/20 07:45:28;;;;;;;33.17;20.97;;;;;;;-3.54;100.00;102438.19;10533677;28;20063;-83
2024/01/20 07:50:29;;;;;;;42.65;21.90;;;;;;;-3.51;100.00;102431.63;10547568;28;20046;-83
2024/01/20 07:55:29;;;;;;;28.63;19.83;;;;;;;-3.51;100.00;102429.06;10546567;28;20459;-83
2024/01/20 08:00:30;;;;;;;33.83;20.03;;;;;;;-3.47;100.00;102432.25;10545436;28;20435;-84
2024/01/20 08:05:31;;;;;;;41.27;23.20;;;;;;;-3.41;100.00;102433.03;10547051;27;20454;-83
2024/01/20 08:10:32;;;;;;;34.33;23.88;;;;;;;-3.45;100.00;102440.09;10544764;28;20040;-83
2024/01/20 08:15:32;;;;;;;46.27;25.30;;;;;;;-3.41;100.00;102448.41;10519205;28;20089;-84
2024/01/20 08:20:33;;;;;;;38.53;24.63;;;;;;;-3.45;100.00;102441.03;10546377;28;20089;-83
2024/01/20 08:25:34;;;;;;;35.70;16.10;;;;;;;-3.44;100.00;102448.00;10527654;28;20092;-83
2024/01/20 08:30:34;;;;;;;52.70;26.97;;;;;;;-3.49;100.00;102443.91;10528784;28;20055;-82
2024/01/20 08:35:35;;;;;;;48.43;27.93;;;;;;;-3.42;100.00;102450.75;10544307;28;20113;-81
2024/01/20 08:40:35;;;;;;;46.90;24.20;;;;;;;-3.39;100.00;102456.25;10545227;28;20035;-81
2024/01/20 08:45:36;;;;;;;29.60;22.37;;;;;;;-3.36;100.00;102459.22;10542929;28;20118;-83
2024/01/20 08:50:36;;;;;;;33.73;21.03;;;;;;;-3.32;100.00;102464.00;10562958;28;20032;-82
2024/01/20 08:55:37;;;;;;;33.60;19.67;;;;;;;-3.36;100.00;102474.56;10544786;28;20039;-80
2024/01/20 09:00:37;;;;;;;32.57;20.90;;;;;;;-3.36;100.00;102482.25;10528568;28;20032;-80
2024/01/20 09:05:38;;;;;;;26.93;17.50;;;;;;;-3.49;100.00;102478.81;10544547;28;20470;-82
2024/01/20 09:10:39;;;;;;;46.97;21.87;;;;;;;-3.42;100.00;102489.16;10562878;28;20040;-81
2024/01/20 09:15:39;;;;;;;29.57;20.37;;;;;;;-3.43;100.00;102484.75;10528192;28;20044;-81
2024/01/20 09:20:40;;;;;;;32.40;17.17;;;;;;;-3.35;100.00;102489.22;10528711;28;20348;-80
2024/01/20 09:25:40;;;;;;;36.43;18.80;;;;;;;-3.37;100.00;102492.31;10544797;28;20048;-80
2024/01/20 09:30:41;;;;;;;31.27;20.63;;;;;;;-3.32;100.00;102501.50;10546375;28;20047;-80
2024/01/20 09:35:43;;;;;;;23.27;15.53;;;;;;;-3.21;100.00;102510.56;10562454;28;20046;-79
2024/01/20 09:40:43;;;;;;;;;;;;;;;-3.12;100.00;102506.63;10545379;28;20047;-80
2024/01/20 09:45:44;;;;;;;24.20;19.40;;;;;;;-3.13;100.00;102518.53;10545943;28;20457;-80
2024/01/20 09:50:44;;;;;;;23.10;14.47;;;;;;;-3.06;100.00;102512.53;10511584;28;20043;-80
2024/01/20 09:55:45;;;;;;;24.53;14.20;;;;;;;-3.01;100.00;102515.72;10506706;28;20043;-79
2024/01/20 10:00:46;;;;;;;23.47;16.07;;;;;;;-2.81;100.00;102516.63;10521658;28;20044;-80
2024/01/20 10:05:47;;;;;;;22.03;13.30;;;;;;;-2.47;100.00;102507.16;10520154;28;20051;-81
2024/01/20 10:10:47;;;;;;;22.37;14.37;;;;;;;-2.28;100.00;102504.34;10544733;28;20044;-81
2024/01/20 10:15:48;;;;;;;18.00;11.77;;;;;;;-2.15;100.00;102507.72;10545808;28;20070;-81
2024/01/20 10:20:48;;;;;;;16.93;12.00;;;;;;;-1.94;100.00;102501.78;10531296;28;20594;-81
2024/01/20 10:25:58;;;;;;;16.50;11.97;;;;;;;-1.65;100.00;102507.03;10527119;28;20048;-81
2024/01/20 10:31:01;;;;;;;19.42;14.10;;;;;;;-1.28;100.00;102510.59;10518873;28;20047;-82
2024/01/20 10:36:05;;;;;;;14.52;10.57;;;;;;;0.92;100.00;102499.16;10513481;28;20047;-83
2024/01/20 10:41:09;;;;;;;16.70;9.23;;;;;;;3.30;100.00;102551.34;10525095;28;20055;-83
2024/01/20 10:46:30;;;;;;;15.25;9.15;;;;;;;4.51;100.00;102642.97;10547189;28;20125;-82
2024/01/20 10:51:33;;;;;;;12.48;8.93;;;;;;;5.38;100.00;102680.97;10559150;28;20435;-82
2024/01/20 10:56:34;;;;;;;14.60;7.82;;;;;;;5.56;100.00;102701.72;10569338;28;20046;-82
2024/01/20 11:01:36;;;;;;;14.48;8.20;;;;;;;6.56;100.00;102710.34;10525322;28;20126;-83
2024/01/20 11:06:36;;;;;;;11.23;8.48;;;;;;;6.63;100.00;102719.63;10532672;28;20046;-83
2024/01/20 11:11:37;;;;;;;14.95;8.23;;;;;;;4.85;100.00;102726.78;10568560;28;20409;-81
2024/01/20 11:16:38;;;;;;;16.23;10.10;;;;;;;4.55;100.00;102709.94;10548090;28;20024;-83
2024/01/20 11:21:38;;;;;;;20.77;9.63;;;;;;;4.89;100.00;102708.16;10531956;28;20042;-82
2024/01/20 11:26:39;;;;;;;16.30;10.63;;;;;;;4.62;100.00;102709.81;10531258;28;20509;-82
2024/01/20 11:31:46;;;;;;;20.92;9.80;;;;;;;3.73;100.00;102707.66;10531380;28;20059;-82
2024/01/20 11:36:48;;;;;;;20.85;9.52;;;;;;;3.33;100.00;102691.44;10521535;28;20040;-79
2024/01/20 11:41:58;;;;;;;;;;;;;;;4.63;100.00;102696.06;10549060;28;20050;-80
2024/01/20 11:46:59;;;;;;;16.35;7.53;;;;;;;3.58;100.00;102694.03;10566633;28;19949;-79
2024/01/20 11:51:59;;;;;;;17.75;9.88;;;;;;;3.44;100.00;102689.06;10548897;28;20130;-81
2024/01/20 11:57:00;;;;;;;14.43;9.68;;;;;;;1.99;100.00;102680.41;10547505;28;20070;-82
2024/01/20 12:02:00;;;;;;;17.83;9.25;;;;;;;1.34;100.00;102666.31;10548015;28;20042;-82
2024/01/20 12:07:01;;;;;;;14.38;9.13;;;;;;;1.42;100.00;102665.53;10530537;28;20089;-82
2024/01/20 12:12:02;;;;;;;17.85;10.52;;;;;;;2.07;100.00;102652.84;10548155;28;20038;-82
2024/01/20 12:17:03;;;;;;;17.73;8.90;;;;;;;2.18;100.00;102657.53;10523519;28;20092;-82
2024/01/20 12:22:04;;;;;;;17.83;10.27;;;;;;;3.82;100.00;102666.28;10563901;28;20365;-82
2024/01/20 12:27:04;;;;;;;16.10;7.70;;;;;;;4.78;100.00;102670.78;10566950;28;20039;-81
2024/01/20 12:32:05;;;;;;;13.73;8.25;;;;;;;4.75;100.00;102666.94;10546252;28;20028;-81
2024/01/20 12:37:06;;;;;;;15.32;9.43;;;;;;;4.77;100.00;102665.41;10547061;28;20047;-81
2024/01/20 12:42:06;;;;;;;15.05;9.90;;;;;;;4.23;100.00;102677.41;10563848;28;20123;-82
2024/01/20 12:47:07;;;;;;;14.27;9.30;;;;;;;3.79;100.00;102665.94;10548568;28;20558;-82
2024/01/20 12:52:07;;;;;;;14.82;10.38;;;;;;;3.61;100.00;102665.88;10522208;28;20085;-81
2024/01/20 12:57:08;;;;;;;14.07;9.48;;;;;;;4.79;100.00;102658.69;10522284;28;20380;-82
2024/01/20 13:02:08;;;;;;;15.38;8.73;;;;;;;4.40;100.00;102671.31;10507565;28;20042;-82
2024/01/20 13:07:09;;;;;;;11.57;8.15;;;;;;;4.94;100.00;102673.22;10535136;28;20431;-82
2024/01/20 13:12:09;;;;;;;13.95;8.82;;;;;;;5.49;100.00;102650.84;10499084;28;20040;-82
2024/01/20 13:17:10;;;;;;;14.13;8.60;;;;;;;6.63;100.00;102646.75;10528563;28;20123;-82
2024/01/20 13:22:12;;;;;;;15.07;7.55;;;;;;;5.86;100.00;102635.28;10503728;28;20074;-82
2024/01/20 13:27:12;;;;;;;18.98;12.70;;;;;;;5.10;100.00;102635.78;10527704;28;20042;-81
2024/01/20 13:32:13;;;;;;;19.38;11.00;;;;;;;4.53;100.00;102634.59;10555451;28;20498;-82
2024/01/20 13:37:14;;;;;;;14.23;10.32;;;;;;;3.79;100.00;102622.81;10532808;28;20121;-82
2024/01/20 13:42:14;;;;;;;14.05;8.10;;;;;;;3.14;100.00;102622.94;10542427;28;20043;-82
2024/01/20 13:47:15;;;;;;;14.15;8.10;;;;;;;2.86;100.00;102623.50;10550015;28;20032;-82
2024/01/20 13:52:15;;;;;;;8.13;5.07;;;;;;;2.74;100.00;102615.38;10531292;28;20593;-82
2024/01/20 13:57:16;;;;;;;18.55;11.70;;;;;;;2.92;100.00;102610.31;10549960;28;20036;-82
2024/01/20 14:02:16;;;;;;;20.67;11.85;;;;;;;4.03;100.00;102609.66;10539165;28;20066;-82
2024/01/20 14:07:17;;;;;;;24.58;13.93;;;;;;;4.45;100.00;102614.75;10525990;28;20131;-82
2024/01/20 14:12:17;;;;;;;17.30;10.85;;;;;;;3.06;100.00;102624.72;10538449;28;20133;-82
2024/01/20 14:17:18;;;;;;;17.23;9.95;;;;;;;2.32;100.00;102621.19;10541923;28;20043;-82
2024/01/20 14:22:20;;;;;;;16.25;9.50;;;;;;;1.87;100.00;102608.59;10549913;28;20100;-83
2024/01/20 14:27:21;;;;;;;14.20;9.10;;;;;;;1.34;100.00;102612.16;10534672;28;20088;-83
2024/01/20 14:32:22;;;;;;;14.65;8.57;;;;;;;0.37;100.00;102609.72;10523826;28;20555;-83
2024/01/20 14:37:23;;;;;;;18.00;9.97;;;;;;;-0.30;100.00;102613.16;10532585;28;20119;-83
2024/01/20 14:42:24;;;;;;;19.37;9.10;;;;;;;-0.73;100.00;102605.41;10542302;28;20126;-83
2024/01/20 14:47:24;;;;;;;14.40;9.20;;;;;;;-0.99;100.00;102594.56;10538310;28;20479;-83
2024/01/20 14:52:25;;;;;;;19.43;11.00;;;;;;;-1.28;100.00;102592.81;10530170;28;20040;-81
2024/01/20 14:57:25;;;;;;;15.20;10.80;;;;;;;-1.50;100.00;102591.81;10555110;28;20127;-82
2024/01/20 15:02:26;;;;;;;17.10;10.73;;;;;;;-1.74;100.00;102579.41;10542831;28;20043;-82
2024/01/20 15:07:26;;;;;;;13.93;9.17;;;;;;;-1.83;100.00;102587.81;10533014;28;20058;-83
2024/01/20 15:12:26;;;;;;;13.03;8.17;;;;;;;-2.05;100.00;102578.16;10523735;28;20119;-83
2024/01/20 15:17:27;;;;;;;14.43;10.23;;;;;;;-2.32;100.00;102579.06;10514070;28;20495;-83
2024/01/20 15:22:27;;;;;;;14.40;8.57;;;;;;;-2.42;100.00;102583.03;10512036;28;20058;-83
2024/01/20 15:27:28;;;;;;;16.97;9.00;;;;;;;-2.49;100.00;102588.09;10537625;28;20034;-85
2024/01/20 15:32:28;;;;;;;14.10;9.10;;;;;;;-2.82;100.00;102585.59;10555574;28;20039;-84
2024/01/20 15:37:29;;;;;;;16.67;8.00;;;;;;;-3.11;100.00;102567.38;10532140;28;20126;-84
2024/01/20 15:42:29;;;;;;;22.10;10.03;;;;;;;-3.38;100.00;102551.94;10506422;28;20383;-85
2024/01/20 15:47:30;;;;;;;16.10;9.83;;;;;;;-3.62;100.00;102548.91;10544652;28;20122;-84
2024/01/20 15:52:30;;;;;;;12.63;8.20;;;;;;;-3.85;100.00;102543.31;10530805;28;20084;-84
2024/01/20 15:57:31;;;;;;;17.13;9.07;;;;;;;-4.06;100.00;102533.72;10547445;28;20051;-85
2024/01/20 16:02:32;;;;;;;17.57;9.00;;;;;;;-4.30;100.00;102525.53;10544217;28;20067;-85
2024/01/20 16:07:32;;;;;;;9.27;6.20;;;;;;;-4.53;100.00;102516.44;10511792;28;20092;-84
2024/01/20 16:12:33;;;;;;;17.57;9.33;;;;;;;-4.73;100.00;102512.13;10558014;28;20088;-84
2024/01/20 16:17:35;;;;;;;14.20;8.03;;;;;;;-4.81;100.00;102505.03;10521092;28;20120;-84
2024/01/20 16:22:36;;;;;;;13.05;9.02;;;;;;;-5.02;100.00;102503.97;10546870;28;20047;-85
2024/01/20 16:27:36;;;;;;;27.33;8.47;;;;;;;-5.23;100.00;102490.13;10529183;28;20051;-84
2024/01/20 16:32:37;;;;;;;11.90;5.73;;;;;;;-5.20;100.00;102476.84;10544907;28;20063;-84
2024/01/20 16:37:37;;;;;;;12.27;9.00;;;;;;;-5.25;100.00;102462.53;10549240;28;20040;-83
2024/01/20 16:42:38;;;;;;;17.37;9.83;;;;;;;-5.42;100.00;102450.94;10547445;28;20237;-85
2024/01/20 16:47:38;;;;;;;18.77;9.70;;;;;;;-5.51;100.00;102442.00;10543741;28;20185;-86
2024/01/20 16:52:39;;;;;;;13.13;8.40;;;;;;;-5.51;100.00;102427.63;10560590;28;20444;-86
2024/01/20 16:57:40;;;;;;;14.37;8.23;;;;;;;-5.50;100.00;102426.00;10545640;28;20043;-85
2024/01/20 17:02:40;;;;;;;11.97;9.50;;;;;;;-5.51;100.00;102421.59;10523481;28;20047;-85
2024/01/20 17:07:41;;;;;;;12.17;9.00;;;;;;;-5.47;100.00;102417.13;10553797;28;20376;-85
2024/01/20 17:12:41;;;;;;;19.50;9.60;;;;;;;-5.39;100.00;102404.50;10550119;28;20043;-85
2024/01/20 17:17:42;;;;;;;20.17;13.00;;;;;;;-5.30;100.00;102413.41;10536375;28;20047;-85
2024/01/20 17:22:42;;;;;;;11.27;6.80;;;;;;;-5.25;100.00;102408.91;10552200;28;20134;-85
2024/01/20 17:27:43;;;;;;;12.93;7.07;;;;;;;-5.29;100.00;102405.03;10538203;28;20039;-84
2024/01/20 17:32:44;;;;;;;13.43;8.10;;;;;;;-5.35;100.00;102402.56;10561098;27;20067;-83
2024/01/20 17:37:44;;;;;;;20.03;11.27;;;;;;;-5.37;100.00;102403.97;10548046;27;20093;-80
2024/01/20 17:42:45;;;;;;;18.00;10.03;;;;;;;-5.36;100.00;102400.72;10550006;28;20130;-83
2024/01/20 17:47:45;;;;;;;20.50;11.20;;;;;;;-5.35;100.00;102404.22;10569257;27;20062;-84
2024/01/20 17:52:48;;;;;;;24.83;11.37;;;;;;;-5.41;100.00;102404.28;10549748;27;20432;-85
2024/01/20 17:57:49;;;;;;;18.52;12.30;;;;;;;-5.46;100.00;102392.53;10531580;27;20043;-82
2024/01/20 18:02:52;;;;;;;14.68;9.57;;;;;;;-5.45;100.00;102396.91;10563257;27;20156;-88
2024/01/20 18:07:52;;;;;;;24.85;11.30;;;;;;;-5.52;100.00;102394.25;10542512;27;20089;-83
2024/01/20 18:12:53;;;;;;;16.17;11.37;;;;;;;-5.60;100.00;102394.13;10544250;27;20039;-85
2024/01/20 18:17:54;;;;;;;16.87;11.37;;;;;;;-5.64;100.00;102390.94;10541156;27;20051;-86
2024/01/20 18:22:55;;;;;;;15.43;9.77;;;;;;;-5.72;100.00;102383.88;10584330;27;20092;-81
2024/01/20 18:27:57;;;;;;;13.70;11.00;;;;;;;-5.82;100.00;102372.41;10588126;27;20065;-81
2024/01/20 18:32:57;;;;;;;19.90;12.82;;;;;;;-5.81;100.00;102370.78;10581749;27;20276;-83
2024/01/20 18:37:58;;;;;;;19.10;13.87;;;;;;;-5.78;100.00;102366.09;10564595;28;20035;-82
2024/01/20 18:43:00;;;;;;;17.20;13.45;;;;;;;-5.84;100.00;102357.59;10546795;28;20096;-82
2024/01/20 18:48:02;;;;;;;18.40;14.40;;;;;;;-5.78;100.00;102359.38;10567283;28;20130;-83
2024/01/20 18:53:02;;;;;;;26.47;14.97;;;;;;;-5.60;100.00;102342.19;10566630;28;20483;-82
2024/01/20 18:58:03;;;;;;;23.57;13.70;;;;;;;-5.49;100.00;102325.75;10549515;28;20035;-82
2024/01/20 19:03:03;;;;;;;25.90;14.03;;;;;;;-5.51;100.00;102337.41;10566662;28;20050;-83
2024/01/20 19:08:07;;;;;;;23.30;15.17;;;;;;;-5.66;100.00;102341.34;10567384;27;20045;-86
2024/01/20 19:13:08;;;;;;;14.98;13.40;;;;;;;-5.82;100.00;102338.31;10566600;27;20050;-85
2024/01/20 19:18:08;;;;;;;18.23;12.23;;;;;;;-6.00;100.00;102340.19;10546762;28;21776;-85
2024/01/20 19:23:09;;;;;;;22.33;14.53;;;;;;;-6.21;100.00;102338.22;10546546;28;20040;-83
2024/01/20 19:28:09;;;;;;;22.00;15.07;;;;;;;-6.32;100.00;102334.16;10549383;28;20068;-86
2024/01/20 19:33:10;;;;;;;17.87;11.77;;;;;;;-6.42;100.00;102323.41;10546942;28;20048;-85
2024/01/20 19:38:11;;;;;;;21.83;15.05;;;;;;;-6.37;100.00;102319.88;10564910;28;20073;-83
2024/01/20 19:43:12;;;;;;;19.37;15.23;;;;;;;-6.45;100.00;102315.34;10547647;28;20118;-84
2024/01/20 19:48:12;;;;;;;25.63;12.57;;;;;;;-6.56;100.00;102306.22;10546789;28;20040;-82
2024/01/20 19:53:13;;;;;;;25.25;14.70;;;;;;;-6.58;100.00;102307.63;10547802;28;20402;-83
2024/01/20 19:58:14;;;;;;;33.33;14.43;;;;;;;-6.61;100.00;102290.28;10565689;28;20146;-80
2024/01/20 20:03:14;;;;;;;18.63;13.80;;;;;;;-6.63;100.00;102286.59;10547178;28;20039;-83
2024/01/20 20:08:22;;;;;;;17.73;11.17;;;;;;;-6.70;100.00;102286.47;10544192;28;20039;-83
2024/01/20 20:13:24;;;;;;;22.33;14.05;;;;;;;-6.70;100.00;102276.28;10564402;28;20063;-83
2024/01/20 20:18:24;;;;;;;;;;;;;;;-6.71;100.00;102275.38;10547176;28;20047;-83
2024/01/20 20:23:24;;;;;;;18.60;10.67;;;;;;;-6.57;100.00;102271.28;10563710;28;20284;-83
2024/01/20 20:28:25;;;;;;;14.20;10.63;;;;;;;-6.42;100.00;102259.72;10563228;28;20122;-83
2024/01/20 20:33:25;;;;;;;20.83;10.00;;;;;;;-6.17;100.00;102250.34;10520852;28;20513;-82
2024/01/20 20:38:26;;;;;;;18.50;10.43;;;;;;;-5.92;100.00;102240.16;10528332;28;20047;-83
2024/01/20 20:43:28;;;;;;;31.53;9.77;;;;;;;-5.82;100.00;102243.97;10546341;28;20130;-82
2024/01/20 20:48:30;;;;;;;13.07;9.35;;;;;;;-5.60;100.00;102232.47;10546330;28;20040;-81
2024/01/20 20:53:30;;;;;;;18.63;10.75;;;;;;;-5.39;100.00;102226.75;10537473;28;20039;-81
2024/01/20 20:58:31;;;;;;;11.10;7.13;;;;;;;-5.12;100.00;102208.16;10544646;28;20126;-81
2024/01/20 21:03:31;;;;;;;19.07;8.97;;;;;;;-4.79;100.00;102202.16;10528704;28;20071;-81
2024/01/20 21:08:32;;;;;;;10.80;8.97;;;;;;;-4.64;100.00;102208.34;10543199;28;20042;-80
2024/01/20 21:13:32;;;;;;;15.30;9.47;;;;;;;-4.61;100.00;102208.75;10564446;28;20101;-80
2024/01/20 21:18:34;;;;;;;17.20;10.60;;;;;;;-4.64;100.00;102228.78;10553040;28;20134;-81
2024/01/20 21:23:34;;;;;;;15.05;8.05;;;;;;;-4.68;100.00;102240.25;10543170;28;20089;-80
2024/01/20 21:28:35;;;;;;;10.77;7.57;;;;;;;-4.75;100.00;102243.63;10541718;28;20088;-80
2024/01/20 21:33:35;;;;;;;15.80;8.77;;;;;;;-4.77;100.00;102237.41;10561330;28;20118;-81
2024/01/20 21:38:36;;;;;;;16.93;8.40;;;;;;;-4.68;100.00;102231.66;10559177;28;20130;-81
2024/01/20 21:43:36;;;;;;;14.70;8.37;;;;;;;-4.55;100.00;102229.97;10543959;28;20040;-81
2024/01/20 21:48:37;;;;;;;13.93;7.83;;;;;;;-4.51;100.00;102219.44;10569486;28;20174;-81
2024/01/20 21:53:37;;;;;;;16.73;8.17;;;;;;;-4.56;100.00;102212.81;10571129;28;20398;-82
2024/01/20 21:58:38;;;;;;;16.73;9.40;;;;;;;-4.64;100.00;102211.84;10527293;28;20031;-82
2024/01/20 22:03:38;;;;;;;12.70;7.67;;;;;;;-4.73;100.00;102229.41;10553334;28;20055;-81
2024/01/20 22:08:39;;;;;;;16.97;8.27;;;;;;;-4.71;100.00;102239.84;10550564;28;20114;-82
2024/01/20 22:13:39;;;;;;;13.40;7.70;;;;;;;-4.89;100.00;102239.28;10517584;28;20044;-82
2024/01/20 22:18:40;;;;;;;9.90;8.60;;;;;;;-4.98;100.00;102234.59;10551779;28;20114;-82
2024/01/20 22:23:42;;;;;;;14.70;9.43;;;;;;;-5.25;100.00;102222.56;10570074;28;20051;-82
2024/01/20 22:28:43;;;;;;;15.63;8.38;;;;;;;-5.42;100.00;102202.47;10533131;28;20399;-82